createdAt,value
2019-04-21T00:01:00.463Z,1021.80
2019-04-21T00:01:57.913Z,1021.77
2019-04-21T00:03:01.880Z,1021.74
2019-04-21T00:04:07.394Z,1021.74
2019-04-21T00:05:16.491Z,1021.77
2019-04-21T00:06:15.636Z,1021.72
2019-04-21T00:07:16.020Z,1021.76
2019-04-21T00:08:24.693Z,1021.73
2019-04-21T00:09:21.148Z,1021.77
2019-04-21T00:10:18.500Z,1021.76
2019-04-21T00:11:18.454Z,1021.75
2019-04-21T00:12:15.474Z,1021.73
2019-04-21T00:13:16.628Z,1021.74
2019-04-21T00:14:08.959Z,1021.72
2019-04-21T00:15:07.666Z,1021.73
2019-04-21T00:16:00.243Z,1021.74
2019-04-21T00:17:05.332Z,1021.73
2019-04-21T00:18:00.616Z,1021.69
2019-04-21T00:19:03.341Z,1021.68
2019-04-21T00:20:09.109Z,1021.66
2019-04-21T00:20:58.598Z,1021.67
2019-04-21T00:23:13.045Z,1021.66
2019-04-21T00:24:08.816Z,1021.63
2019-04-21T00:25:11.803Z,1021.62
2019-04-21T00:26:07.578Z,1021.63
2019-04-21T00:27:13.413Z,1021.61
2019-04-21T00:28:20.106Z,1021.64
2019-04-21T00:29:16.794Z,1021.62
2019-04-21T00:30:17.031Z,1021.62
2019-04-21T00:31:12.775Z,1021.67
2019-04-21T00:32:09.990Z,1021.62
2019-04-21T00:33:05.197Z,1021.61
2019-04-21T00:33:56.407Z,1021.58
2019-04-21T00:35:00.833Z,1021.56
2019-04-21T00:36:00.665Z,1021.55
2019-04-21T00:37:05.839Z,1021.57
2019-04-21T00:38:17.238Z,1021.56
2019-04-21T00:39:28.797Z,1021.49
2019-04-21T00:40:18.739Z,1021.53
2019-04-21T00:41:19.269Z,1021.51
2019-04-21T00:42:16.847Z,1021.50
2019-04-21T00:43:13.682Z,1021.43
2019-04-21T00:44:08.688Z,1021.45
2019-04-21T00:45:09.111Z,1021.45
2019-04-21T00:46:03.482Z,1021.41
2019-04-21T00:47:08.452Z,1021.39
2019-04-21T00:48:16.958Z,1021.41
2019-04-21T00:49:14.144Z,1021.40
2019-04-21T00:50:14.343Z,1021.35
2019-04-21T00:52:25.130Z,1021.31
2019-04-21T00:53:24.611Z,1021.28
2019-04-21T00:54:22.738Z,1021.29
2019-04-21T00:55:35.499Z,1021.30
2019-04-21T00:56:18.176Z,1021.31
2019-04-21T00:57:21.967Z,1021.25
2019-04-21T00:58:18.358Z,1021.22
2019-04-21T00:59:20.107Z,1021.23
2019-04-21T01:00:20.632Z,1021.24
2019-04-21T01:01:15.225Z,1021.22
2019-04-21T01:02:09.910Z,1021.23
2019-04-21T01:03:14.252Z,1021.22
2019-04-21T01:04:16.924Z,1021.22
2019-04-21T01:05:19.841Z,1021.22
2019-04-21T01:06:21.036Z,1021.20
2019-04-21T01:07:14.199Z,1021.20
2019-04-21T01:08:14.322Z,1021.19
2019-04-21T01:10:06.428Z,1021.14
2019-04-21T01:11:17.881Z,1021.09
2019-04-21T01:12:12.556Z,1021.10
2019-04-21T01:13:16.847Z,1021.08
2019-04-21T01:14:20.063Z,1021.04
2019-04-21T01:15:18.345Z,1021.03
2019-04-21T01:16:20.841Z,1021.03
2019-04-21T01:17:19.181Z,1021.01
2019-04-21T01:18:16.481Z,1021.01
2019-04-21T01:19:14.369Z,1020.97
2019-04-21T01:20:06.519Z,1020.98
2019-04-21T01:20:52.840Z,1021.00
2019-04-21T01:21:52.798Z,1021.00
2019-04-21T01:22:53.720Z,1021.02
2019-04-21T01:23:55.731Z,1020.98
2019-04-21T01:25:00.055Z,1020.95
2019-04-21T01:26:06.789Z,1021.01
2019-04-21T01:27:04.812Z,1021.00
2019-04-21T01:28:09.900Z,1021.00
2019-04-21T01:29:12.662Z,1021.01
2019-04-21T01:30:11.716Z,1020.97
2019-04-21T01:31:11.101Z,1021.01
2019-04-21T01:32:18.767Z,1021.03
2019-04-21T01:33:12.378Z,1021.00
2019-04-21T01:34:15.087Z,1021.00
2019-04-21T01:35:14.977Z,1020.98
2019-04-21T01:36:08.328Z,1020.98
2019-04-21T01:37:04.625Z,1020.96
2019-04-21T01:38:13.873Z,1020.98
2019-04-21T01:39:13.170Z,1020.97
2019-04-21T01:40:21.129Z,1020.95
2019-04-21T01:41:13.241Z,1020.95
2019-04-21T01:42:08.851Z,1020.95
2019-04-21T01:43:15.064Z,1020.87
2019-04-21T01:44:19.639Z,1020.88
2019-04-21T01:45:09.340Z,1020.88
2019-04-21T01:46:09.247Z,1020.86
2019-04-21T01:47:06.006Z,1020.89
2019-04-21T01:48:06.459Z,1020.86
2019-04-21T01:49:05.601Z,1020.83
2019-04-21T01:49:59.312Z,1020.83
2019-04-21T01:51:09.678Z,1020.85
2019-04-21T01:52:37.265Z,1020.88
2019-04-21T01:53:17.513Z,1020.88
2019-04-21T01:54:18.534Z,1020.91
2019-04-21T01:55:13.815Z,1020.89
2019-04-21T01:56:12.077Z,1020.87
2019-04-21T01:57:07.294Z,1020.91
2019-04-21T01:58:06.013Z,1020.93
2019-04-21T01:59:00.867Z,1020.91
2019-04-21T02:00:00.927Z,1020.95
2019-04-21T02:01:04.722Z,1020.96
2019-04-21T02:02:14.205Z,1020.92
2019-04-21T02:03:31.470Z,1020.93
2019-04-21T02:04:16.655Z,1020.94
2019-04-21T02:05:20.698Z,1020.91
2019-04-21T02:07:11.597Z,1020.88
2019-04-21T02:08:10.877Z,1020.88
2019-04-21T02:09:10.057Z,1020.92
2019-04-21T02:10:14.475Z,1020.93
2019-04-21T02:12:13.444Z,1020.97
2019-04-21T02:13:10.289Z,1020.97
2019-04-21T02:14:12.959Z,1020.97
2019-04-21T02:15:16.649Z,1021.01
2019-04-21T02:16:11.300Z,1021.03
2019-04-21T02:17:13.284Z,1021.06
2019-04-21T02:18:12.030Z,1021.06
2019-04-21T02:19:08.479Z,1021.07
2019-04-21T02:20:05.356Z,1021.09
2019-04-21T02:20:58.011Z,1021.05
2019-04-21T02:22:04.566Z,1021.06
2019-04-21T02:24:20.892Z,1021.06
2019-04-21T02:25:17.558Z,1021.06
2019-04-21T02:26:14.094Z,1021.07
2019-04-21T02:27:17.383Z,1021.06
2019-04-21T02:28:03.536Z,1021.10
2019-04-21T02:29:14.304Z,1021.03
2019-04-21T02:30:18.343Z,1021.05
2019-04-21T02:33:26.045Z,1021.02
2019-04-21T02:34:13.117Z,1020.98
2019-04-21T02:35:40.724Z,1021.02
2019-04-21T02:38:30.589Z,1020.96
2019-04-21T02:40:22.297Z,1020.92
2019-04-21T02:41:26.494Z,1020.91
2019-04-21T02:42:20.333Z,1020.88
2019-04-21T02:43:38.388Z,1020.89
2019-04-21T02:44:26.449Z,1020.85
2019-04-21T02:46:24.016Z,1020.82
2019-04-21T02:47:30.836Z,1020.78
2019-04-21T02:48:17.301Z,1020.73
2019-04-21T02:51:19.363Z,1020.70
2019-04-21T02:52:31.937Z,1020.69
2019-04-21T02:53:30.532Z,1020.67
2019-04-21T02:54:43.613Z,1020.73
2019-04-21T02:55:13.454Z,1020.69
2019-04-21T02:56:26.412Z,1020.68
2019-04-21T02:57:18.575Z,1020.67
2019-04-21T02:59:33.651Z,1020.67
2019-04-21T03:00:23.776Z,1020.68
2019-04-21T03:01:24.371Z,1020.66
2019-04-21T03:02:24.683Z,1020.66
2019-04-21T03:03:26.027Z,1020.69
2019-04-21T03:04:30.303Z,1020.66
2019-04-21T03:05:23.698Z,1020.65
2019-04-21T03:06:18.736Z,1020.62
2019-04-21T03:07:20.003Z,1020.62
2019-04-21T03:08:32.183Z,1020.61
2019-04-21T03:09:25.953Z,1020.60
2019-04-21T03:11:11.915Z,1020.57
2019-04-21T03:13:21.676Z,1020.51
2019-04-21T03:14:28.323Z,1020.46
2019-04-21T03:15:25.057Z,1020.49
2019-04-21T03:17:22.306Z,1020.43
2019-04-21T03:19:33.053Z,1020.42
2019-04-21T03:20:21.164Z,1020.41
2019-04-21T03:21:16.868Z,1020.34
2019-04-21T03:22:20.881Z,1020.38
2019-04-21T03:23:36.576Z,1020.34
2019-04-21T03:24:31.209Z,1020.29
2019-04-21T03:25:39.093Z,1020.31
2019-04-21T03:29:20.283Z,1020.23
2019-04-21T03:31:35.363Z,1020.19
2019-04-21T03:34:41.831Z,1020.16
2019-04-21T03:36:41.073Z,1020.22
2019-04-21T03:38:20.802Z,1020.18
2019-04-21T03:39:11.403Z,1020.18
2019-04-21T03:40:14.937Z,1020.15
2019-04-21T03:41:37.896Z,1020.15
2019-04-21T03:42:30.608Z,1020.14
2019-04-21T03:43:20.700Z,1020.11
2019-04-21T03:44:14.420Z,1020.12
2019-04-21T03:45:26.388Z,1020.14
2019-04-21T03:46:18.319Z,1020.11
2019-04-21T03:47:28.815Z,1020.15
2019-04-21T03:48:24.027Z,1020.13
2019-04-21T03:49:23.069Z,1020.14
2019-04-21T03:50:22.324Z,1020.11
2019-04-21T03:51:21.563Z,1020.12
2019-04-21T03:52:19.537Z,1020.12
2019-04-21T03:53:18.467Z,1020.10
2019-04-21T03:54:15.611Z,1020.13
2019-04-21T03:55:42.905Z,1020.12
2019-04-21T03:56:27.083Z,1020.12
2019-04-21T03:57:21.650Z,1020.16
2019-04-21T03:59:11.534Z,1020.13
2019-04-21T04:01:17.963Z,1020.08
2019-04-21T04:02:30.673Z,1020.11
2019-04-21T04:03:35.249Z,1020.11
2019-04-21T04:04:22.595Z,1020.07
2019-04-21T04:05:23.877Z,1020.04
2019-04-21T04:06:24.571Z,1020.05
2019-04-21T04:07:25.054Z,1020.03
2019-04-21T04:08:22.820Z,1020.05
2019-04-21T04:09:21.471Z,1020.06
2019-04-21T04:10:11.966Z,1020.01
2019-04-21T04:11:23.428Z,1020.02
2019-04-21T04:12:13.474Z,1019.97
2019-04-21T04:13:18.568Z,1020.01
2019-04-21T04:14:26.940Z,1020.04
2019-04-21T04:15:20.502Z,1020.02
2019-04-21T04:17:23.954Z,1019.99
2019-04-21T04:18:23.453Z,1020.00
2019-04-21T04:19:34.443Z,1019.96
2019-04-21T04:20:22.422Z,1019.90
2019-04-21T04:21:24.249Z,1019.96
2019-04-21T04:24:22.031Z,1019.94
2019-04-21T04:25:19.186Z,1019.95
2019-04-21T04:26:16.921Z,1019.96
2019-04-21T04:28:23.065Z,1020.00
2019-04-21T04:29:22.517Z,1019.96
2019-04-21T04:30:35.713Z,1019.99
2019-04-21T04:31:28.139Z,1019.96
2019-04-21T04:32:14.594Z,1019.96
2019-04-21T04:33:20.341Z,1019.91
2019-04-21T04:34:39.130Z,1019.95
2019-04-21T04:35:21.673Z,1019.93
2019-04-21T04:36:29.614Z,1019.90
2019-04-21T04:37:32.194Z,1019.89
2019-04-21T04:38:32.390Z,1019.94
2019-04-21T04:39:26.353Z,1019.93
2019-04-21T04:40:17.380Z,1019.89
2019-04-21T04:41:33.646Z,1019.87
2019-04-21T04:42:21.720Z,1019.86
2019-04-21T04:43:23.362Z,1019.86
2019-04-21T04:44:37.262Z,1019.83
2019-04-21T04:45:34.543Z,1019.87
2019-04-21T04:46:21.460Z,1019.85
2019-04-21T04:49:23.664Z,1019.86
2019-04-21T04:50:17.731Z,1019.83
2019-04-21T04:51:11.671Z,1019.83
2019-04-21T04:54:03.840Z,1019.81
2019-04-21T04:55:25.776Z,1019.80
2019-04-21T04:56:16.362Z,1019.79
2019-04-21T04:57:43.302Z,1019.78
2019-04-21T04:58:23.393Z,1019.78
2019-04-21T05:00:23.432Z,1019.72
2019-04-21T05:01:31.986Z,1019.74
2019-04-21T05:02:19.815Z,1019.76
2019-04-21T05:03:15.571Z,1019.72
2019-04-21T05:04:20.887Z,1019.71
2019-04-21T05:06:28.508Z,1019.73
2019-04-21T05:07:17.486Z,1019.72
2019-04-21T05:08:23.946Z,1019.76
2019-04-21T05:09:23.194Z,1019.75
2019-04-21T05:10:04.296Z,1019.72
2019-04-21T05:11:23.546Z,1019.74
2019-04-21T05:12:24.771Z,1019.73
2019-04-21T05:13:06.475Z,1019.74
2019-04-21T05:14:17.133Z,1019.73
2019-04-21T05:15:34.179Z,1019.70
2019-04-21T05:16:12.788Z,1019.73
2019-04-21T05:17:15.711Z,1019.74
2019-04-21T05:18:15.336Z,1019.72
2019-04-21T05:19:22.635Z,1019.70
2019-04-21T05:21:24.746Z,1019.69
2019-04-21T05:22:14.232Z,1019.72
2019-04-21T05:23:07.734Z,1019.67
2019-04-21T05:24:02.638Z,1019.67
2019-04-21T05:24:59.559Z,1019.70
2019-04-21T05:25:53.372Z,1019.63
2019-04-21T05:26:58.202Z,1019.64
2019-04-21T05:27:56.457Z,1019.66
2019-04-21T05:28:52.655Z,1019.63
2019-04-21T05:30:10.354Z,1019.63
2019-04-21T05:31:04.797Z,1019.62
2019-04-21T05:32:04.692Z,1019.65
2019-04-21T05:33:03.939Z,1019.66
2019-04-21T05:34:07.474Z,1019.65
2019-04-21T05:35:01.893Z,1019.63
2019-04-21T05:36:04.109Z,1019.64
2019-04-21T05:37:06.079Z,1019.66
2019-04-21T05:38:03.130Z,1019.67
2019-04-21T05:39:01.284Z,1019.66
2019-04-21T05:39:57.908Z,1019.64
2019-04-21T05:40:55.179Z,1019.64
2019-04-21T05:41:50.650Z,1019.64
2019-04-21T05:42:59.831Z,1019.64
2019-04-21T05:44:06.606Z,1019.62
2019-04-21T05:45:12.743Z,1019.62
2019-04-21T05:46:18.480Z,1019.65
2019-04-21T05:47:18.828Z,1019.66
2019-04-21T05:48:11.631Z,1019.64
2019-04-21T05:49:06.822Z,1019.63
2019-04-21T05:50:01.215Z,1019.66
2019-04-21T05:50:59.163Z,1019.65
2019-04-21T05:51:55.724Z,1019.68
2019-04-21T05:52:53.484Z,1019.63
2019-04-21T05:54:10.585Z,1019.67
2019-04-21T05:55:00.965Z,1019.63
2019-04-21T05:56:03.579Z,1019.65
2019-04-21T05:56:59.882Z,1019.65
2019-04-21T05:58:02.510Z,1019.63
2019-04-21T05:59:02.351Z,1019.62
2019-04-21T06:00:04.338Z,1019.63
2019-04-21T06:01:15.404Z,1019.59
2019-04-21T06:02:15.219Z,1019.59
2019-04-21T06:03:04.242Z,1019.53
2019-04-21T06:04:07.625Z,1019.58
2019-04-21T06:05:14.252Z,1019.54
2019-04-21T06:06:09.991Z,1019.57
2019-04-21T06:08:02.970Z,1019.56
2019-04-21T06:09:02.857Z,1019.56
2019-04-21T06:10:00.088Z,1019.53
2019-04-21T06:11:02.426Z,1019.57
2019-04-21T06:12:03.795Z,1019.46
2019-04-21T06:13:09.484Z,1019.55
2019-04-21T06:14:04.170Z,1019.55
2019-04-21T06:15:03.817Z,1019.57
2019-04-21T06:16:05.855Z,1019.55
2019-04-21T06:17:02.911Z,1019.57
2019-04-21T06:18:06.403Z,1019.56
2019-04-21T06:19:05.259Z,1019.60
2019-04-21T06:19:59.931Z,1019.61
2019-04-21T06:21:01.290Z,1019.57
2019-04-21T06:21:57.434Z,1019.62
2019-04-21T06:23:03.001Z,1019.54
2019-04-21T06:23:57.577Z,1019.55
2019-04-21T06:25:31.581Z,1019.54
2019-04-21T06:27:13.428Z,1019.51
2019-04-21T06:28:08.958Z,1019.47
2019-04-21T06:28:59.579Z,1019.49
2019-04-21T06:29:59.929Z,1019.49
2019-04-21T06:31:18.153Z,1019.45
2019-04-21T06:32:21.898Z,1019.49
2019-04-21T06:33:24.041Z,1019.49
2019-04-21T06:34:00.216Z,1019.49
2019-04-21T06:35:23.840Z,1019.50
2019-04-21T06:36:31.762Z,1019.51
2019-04-21T06:37:18.782Z,1019.52
2019-04-21T06:38:03.674Z,1019.53
2019-04-21T06:41:06.183Z,1019.55
2019-04-21T06:41:58.501Z,1019.51
2019-04-21T06:43:11.065Z,1019.51
2019-04-21T06:44:01.355Z,1019.52
2019-04-21T06:45:59.029Z,1019.49
2019-04-21T06:46:59.026Z,1019.49
2019-04-21T06:48:04.720Z,1019.51
2019-04-21T06:49:18.747Z,1019.49
2019-04-21T06:50:20.650Z,1019.48
2019-04-21T06:51:01.578Z,1019.51
2019-04-21T06:52:10.601Z,1019.50
2019-04-21T06:53:23.818Z,1019.54
2019-04-21T06:54:03.602Z,1019.53
2019-04-21T06:55:03.326Z,1019.52
2019-04-21T06:56:56.603Z,1019.50
2019-04-21T06:58:00.701Z,1019.49
2019-04-21T06:59:01.261Z,1019.49
2019-04-21T06:59:57.172Z,1019.48
2019-04-21T07:00:56.268Z,1019.46
2019-04-21T07:02:08.186Z,1019.49
2019-04-21T07:03:11.012Z,1019.48
2019-04-21T07:04:07.643Z,1019.49
2019-04-21T07:05:03.695Z,1019.46
2019-04-21T07:06:03.582Z,1019.45
2019-04-21T07:06:59.372Z,1019.48
2019-04-21T07:08:14.930Z,1019.49
2019-04-21T07:09:10.330Z,1019.45
2019-04-21T07:10:09.101Z,1019.48
2019-04-21T07:10:59.165Z,1019.50
2019-04-21T07:11:56.678Z,1019.48
2019-04-21T07:13:00.380Z,1019.48
2019-04-21T07:14:13.571Z,1019.49
2019-04-21T07:14:58.865Z,1019.43
2019-04-21T07:16:04.096Z,1019.44
2019-04-21T07:17:06.558Z,1019.46
2019-04-21T07:18:02.578Z,1019.48
2019-04-21T07:19:05.914Z,1019.46
2019-04-21T07:20:02.397Z,1019.45
2019-04-21T07:20:59.773Z,1019.47
2019-04-21T07:21:55.602Z,1019.44
2019-04-21T07:23:02.801Z,1019.44
2019-04-21T07:23:59.426Z,1019.47
2019-04-21T07:25:07.363Z,1019.46
2019-04-21T07:26:00.714Z,1019.39
2019-04-21T07:27:02.363Z,1019.41
2019-04-21T07:27:59.300Z,1019.42
2019-04-21T07:29:04.546Z,1019.41
2019-04-21T07:29:59.555Z,1019.40
2019-04-21T07:31:03.657Z,1019.36
2019-04-21T07:32:04.582Z,1019.40
2019-04-21T07:33:10.789Z,1019.39
2019-04-21T07:33:58.297Z,1019.42
2019-04-21T07:35:00.594Z,1019.40
2019-04-21T07:35:55.727Z,1019.39
2019-04-21T07:38:00.922Z,1019.42
2019-04-21T07:38:57.381Z,1019.37
2019-04-21T07:39:55.980Z,1019.32
2019-04-21T07:40:45.793Z,1019.31
2019-04-21T07:41:54.056Z,1019.30
2019-04-21T07:42:51.412Z,1019.26
2019-04-21T07:43:51.030Z,1019.25
2019-04-21T07:44:49.212Z,1019.26
2019-04-21T07:45:50.143Z,1019.26
2019-04-21T07:46:47.197Z,1019.24
2019-04-21T07:47:55.204Z,1019.23
2019-04-21T07:48:55.426Z,1019.26
2019-04-21T07:49:57.428Z,1019.23
2019-04-21T07:51:01.656Z,1019.23
2019-04-21T07:51:59.155Z,1019.19
2019-04-21T07:53:05.217Z,1019.22
2019-04-21T07:54:01.878Z,1019.22
2019-04-21T07:55:07.984Z,1019.20
2019-04-21T07:55:37.281Z,1019.19
2019-04-21T07:56:39.898Z,1019.17
2019-04-21T07:57:54.852Z,1019.14
2019-04-21T07:59:00.169Z,1019.15
2019-04-21T08:00:06.489Z,1019.15
2019-04-21T08:00:56.469Z,1019.14
2019-04-21T08:01:55.124Z,1019.15
2019-04-21T08:02:54.433Z,1019.10
2019-04-21T08:03:57.000Z,1019.09
2019-04-21T08:05:00.502Z,1019.07
2019-04-21T08:05:58.471Z,1019.07
2019-04-21T08:06:51.672Z,1019.07
2019-04-21T08:07:56.019Z,1019.08
2019-04-21T08:08:53.520Z,1019.07
2019-04-21T08:09:51.703Z,1019.06
2019-04-21T08:10:53.625Z,1019.09
2019-04-21T08:11:50.518Z,1019.03
2019-04-21T08:13:53.567Z,1019.04
2019-04-21T08:14:55.876Z,1019.06
2019-04-21T08:15:52.851Z,1019.03
2019-04-21T08:16:57.275Z,1018.99
2019-04-21T08:17:57.032Z,1019.01
2019-04-21T08:18:53.588Z,1019.02
2019-04-21T08:19:49.871Z,1019.01
2019-04-21T08:20:54.926Z,1018.97
2019-04-21T08:22:00.078Z,1018.98
2019-04-21T08:23:47.946Z,1018.95
2019-04-21T08:24:57.721Z,1018.96
2019-04-21T08:26:03.272Z,1018.99
2019-04-21T08:27:01.552Z,1018.97
2019-04-21T08:27:54.017Z,1018.96
2019-04-21T08:28:53.781Z,1018.95
2019-04-21T08:29:51.983Z,1018.97
2019-04-21T08:30:55.496Z,1018.94
2019-04-21T08:32:07.839Z,1018.90
2019-04-21T08:33:58.310Z,1018.86
2019-04-21T08:35:14.725Z,1018.84
2019-04-21T08:36:12.982Z,1018.82
2019-04-21T08:36:51.510Z,1018.85
2019-04-21T08:37:48.387Z,1018.84
2019-04-21T08:38:54.447Z,1018.84
2019-04-21T08:40:12.262Z,1018.85
2019-04-21T08:40:56.299Z,1018.84
2019-04-21T08:41:51.017Z,1018.83
2019-04-21T08:42:52.033Z,1018.81
2019-04-21T08:43:54.678Z,1018.79
2019-04-21T08:44:52.472Z,1018.83
2019-04-21T08:45:57.682Z,1018.83
2019-04-21T08:46:52.811Z,1018.78
2019-04-21T08:47:53.540Z,1018.78
2019-04-21T08:48:55.299Z,1018.77
2019-04-21T08:49:53.592Z,1018.76
2019-04-21T08:51:00.624Z,1018.75
2019-04-21T08:51:55.889Z,1018.75
2019-04-21T08:52:56.427Z,1018.77
2019-04-21T08:53:55.079Z,1018.77
2019-04-21T08:54:57.131Z,1018.75
2019-04-21T08:55:58.694Z,1018.77
2019-04-21T08:56:54.683Z,1018.73
2019-04-21T08:57:58.333Z,1018.72
2019-04-21T08:58:59.049Z,1018.73
2019-04-21T08:59:54.773Z,1018.73
2019-04-21T09:00:56.249Z,1018.67
2019-04-21T09:01:48.866Z,1018.67
2019-04-21T09:02:56.129Z,1018.67
2019-04-21T09:03:49.520Z,1018.64
2019-04-21T09:04:56.309Z,1018.67
2019-04-21T09:05:49.447Z,1018.63
2019-04-21T09:06:58.744Z,1018.66
2019-04-21T09:07:50.941Z,1018.61
2019-04-21T09:08:55.065Z,1018.61
2019-04-21T09:09:52.946Z,1018.59
2019-04-21T09:10:48.526Z,1018.61
2019-04-21T09:11:47.515Z,1018.57
2019-04-21T09:12:48.015Z,1018.54
2019-04-21T09:13:50.689Z,1018.59
2019-04-21T09:14:50.586Z,1018.58
2019-04-21T09:15:49.559Z,1018.56
2019-04-21T09:16:46.012Z,1018.57
2019-04-21T09:17:42.439Z,1018.55
2019-04-21T09:18:42.847Z,1018.57
2019-04-21T09:20:06.305Z,1018.53
2019-04-21T09:20:53.785Z,1018.51
2019-04-21T09:21:53.265Z,1018.52
2019-04-21T09:22:49.078Z,1018.48
2019-04-21T09:23:52.274Z,1018.48
2019-04-21T09:24:52.574Z,1018.50
2019-04-21T09:25:53.047Z,1018.50
2019-04-21T09:26:46.593Z,1018.52
2019-04-21T09:27:47.068Z,1018.51
2019-04-21T09:28:39.506Z,1018.49
2019-04-21T09:29:39.293Z,1018.49
2019-04-21T09:30:40.507Z,1018.50
2019-04-21T09:31:37.437Z,1018.45
2019-04-21T09:32:33.002Z,1018.45
2019-04-21T09:33:36.715Z,1018.43
2019-04-21T09:34:36.526Z,1018.41
2019-04-21T09:35:31.430Z,1018.37
2019-04-21T09:36:37.734Z,1018.41
2019-04-21T09:37:40.903Z,1018.38
2019-04-21T09:38:37.087Z,1018.36
2019-04-21T09:39:31.937Z,1018.41
2019-04-21T09:40:36.202Z,1018.36
2019-04-21T09:41:30.955Z,1018.42
2019-04-21T09:42:35.998Z,1018.38
2019-04-21T09:43:37.711Z,1018.38
2019-04-21T09:44:35.055Z,1018.36
2019-04-21T09:45:30.747Z,1018.34
2019-04-21T09:46:29.891Z,1018.34
2019-04-21T09:47:38.555Z,1018.36
2019-04-21T09:48:42.658Z,1018.33
2019-04-21T09:49:32.789Z,1018.32
2019-04-21T09:50:29.563Z,1018.27
2019-04-21T09:51:30.461Z,1018.31
2019-04-21T09:52:38.845Z,1018.28
2019-04-21T09:53:34.471Z,1018.28
2019-04-21T09:54:33.640Z,1018.26
2019-04-21T09:55:39.065Z,1018.27
2019-04-21T09:56:39.540Z,1018.25
2019-04-21T09:57:38.266Z,1018.24
2019-04-21T09:58:34.747Z,1018.21
2019-04-21T09:59:34.951Z,1018.22
2019-04-21T10:00:38.025Z,1018.19
2019-04-21T10:01:43.493Z,1018.19
2019-04-21T10:02:40.248Z,1018.19
2019-04-21T10:03:36.165Z,1018.18
2019-04-21T10:04:29.032Z,1018.13
2019-04-21T10:05:29.769Z,1018.05
2019-04-21T10:06:28.682Z,1018.07
2019-04-21T10:07:34.935Z,1018.05
2019-04-21T10:08:29.555Z,1018.02
2019-04-21T10:09:29.001Z,1017.99
2019-04-21T10:10:29.632Z,1018.02
2019-04-21T10:11:28.811Z,1018.06
2019-04-21T10:12:28.781Z,1018.04
2019-04-21T10:13:29.536Z,1017.99
2019-04-21T10:14:28.679Z,1018.02
2019-04-21T10:15:29.568Z,1017.93
2019-04-21T10:16:28.274Z,1017.90
2019-04-21T10:17:29.317Z,1017.93
2019-04-21T10:18:29.334Z,1017.92
2019-04-21T10:19:28.147Z,1017.86
2019-04-21T10:20:28.561Z,1017.88
2019-04-21T10:21:29.413Z,1017.83
2019-04-21T10:22:28.829Z,1017.82
2019-04-21T10:23:27.985Z,1017.81
2019-04-21T10:24:28.490Z,1017.75
2019-04-21T10:25:28.350Z,1017.74
2019-04-21T10:26:28.616Z,1017.78
2019-04-21T10:27:27.821Z,1017.72
2019-04-21T10:28:28.809Z,1017.71
2019-04-21T10:29:30.038Z,1017.72
2019-04-21T10:30:28.715Z,1017.70
2019-04-21T10:31:28.907Z,1017.73
2019-04-21T10:32:28.201Z,1017.71
2019-04-21T10:33:28.290Z,1017.72
2019-04-21T10:34:27.539Z,1017.68
2019-04-21T10:35:28.550Z,1017.60
2019-04-21T10:36:27.458Z,1017.60
2019-04-21T10:37:39.139Z,1017.54
2019-04-21T10:38:35.448Z,1017.58
2019-04-21T10:39:27.451Z,1017.52
2019-04-21T10:40:29.196Z,1017.52
2019-04-21T10:41:27.597Z,1017.50
2019-04-21T10:42:27.217Z,1017.51
2019-04-21T10:44:52.694Z,1017.47
2019-04-21T10:45:52.854Z,1017.50
2019-04-21T10:46:54.026Z,1017.48
2019-04-21T10:47:52.777Z,1017.44
2019-04-21T10:48:52.601Z,1017.48
2019-04-21T10:49:52.860Z,1017.42
2019-04-21T10:50:52.758Z,1017.38
2019-04-21T10:51:52.919Z,1017.37
2019-04-21T10:52:51.643Z,1017.36
2019-04-21T10:53:52.842Z,1017.35
2019-04-21T10:55:11.144Z,1017.33
2019-04-21T10:56:04.409Z,1017.32
2019-04-21T10:56:52.555Z,1017.24
2019-04-21T10:57:52.658Z,1017.24
2019-04-21T10:58:52.206Z,1017.25
2019-04-21T10:59:54.095Z,1017.22
2019-04-21T11:00:52.721Z,1017.21
2019-04-21T11:01:52.675Z,1017.19
2019-04-21T11:02:51.247Z,1017.24
2019-04-21T11:03:51.210Z,1017.19
2019-04-21T11:04:51.186Z,1017.19
2019-04-21T11:05:52.580Z,1017.15
2019-04-21T11:06:52.530Z,1017.04
2019-04-21T11:08:02.474Z,1017.11
2019-04-21T11:08:55.190Z,1017.07
2019-04-21T11:09:51.872Z,1017.04
2019-04-21T11:10:51.956Z,1017.03
2019-04-21T11:11:53.164Z,1017.04
2019-04-21T11:12:50.907Z,1017.05
2019-04-21T11:13:50.815Z,1017.07
2019-04-21T11:14:51.480Z,1017.05
2019-04-21T11:15:50.923Z,1016.99
2019-04-21T11:16:52.600Z,1017.02
2019-04-21T11:17:50.753Z,1017.05
2019-04-21T11:18:51.617Z,1017.09
2019-04-21T11:19:50.678Z,1016.96
2019-04-21T11:20:51.106Z,1016.97
2019-04-21T11:21:50.520Z,1016.96
2019-04-21T11:22:51.398Z,1016.98
2019-04-21T11:23:50.444Z,1017.00
2019-04-21T11:24:51.133Z,1016.97
2019-04-21T11:25:51.641Z,1017.00
2019-04-21T11:26:51.862Z,1016.93
2019-04-21T11:27:51.164Z,1016.96
2019-04-21T11:28:50.595Z,1016.94
2019-04-21T11:29:51.591Z,1016.92
2019-04-21T11:30:50.959Z,1016.93
2019-04-21T11:31:51.346Z,1016.91
2019-04-21T11:32:51.141Z,1016.91
2019-04-21T11:33:51.174Z,1016.89
2019-04-21T11:34:51.413Z,1016.88
2019-04-21T11:35:51.081Z,1016.87
2019-04-21T11:36:50.268Z,1016.85
2019-04-21T11:37:50.315Z,1016.86
2019-04-21T11:39:07.435Z,1016.88
2019-04-21T11:39:57.366Z,1016.82
2019-04-21T11:40:49.830Z,1016.83
2019-04-21T11:41:49.907Z,1016.81
2019-04-21T11:42:49.721Z,1016.83
2019-04-21T11:43:50.852Z,1016.75
2019-04-21T11:44:49.646Z,1016.75
2019-04-21T11:45:50.531Z,1016.77
2019-04-21T11:46:49.575Z,1016.80
2019-04-21T11:47:50.181Z,1016.78
2019-04-21T11:48:50.377Z,1016.73
2019-04-21T11:49:49.469Z,1016.77
2019-04-21T11:50:50.863Z,1016.80
2019-04-21T11:51:49.400Z,1016.82
2019-04-21T11:52:49.390Z,1016.79
2019-04-21T11:53:50.689Z,1016.81
2019-04-21T11:54:49.292Z,1016.82
2019-04-21T11:55:51.776Z,1016.82
2019-04-21T11:56:50.585Z,1016.83
2019-04-21T11:57:50.175Z,1016.79
2019-04-21T11:58:49.976Z,1016.78
2019-04-21T11:59:49.118Z,1016.75
2019-04-21T12:00:50.905Z,1016.83
2019-04-21T12:01:49.797Z,1016.83
2019-04-21T12:02:49.014Z,1016.81
2019-04-21T12:03:49.658Z,1016.80
2019-04-21T12:04:49.538Z,1016.76
2019-04-21T12:05:48.915Z,1016.70
2019-04-21T12:06:50.778Z,1016.70
2019-04-21T12:07:49.368Z,1016.64
2019-04-21T12:08:51.470Z,1016.59
2019-04-21T12:09:53.443Z,1016.57
2019-04-21T12:10:49.254Z,1016.56
2019-04-21T12:11:49.385Z,1016.55
2019-04-21T12:13:49.693Z,1016.48
2019-04-21T12:14:50.196Z,1016.49
2019-04-21T12:15:49.199Z,1016.51
2019-04-21T12:16:48.785Z,1016.48
2019-04-21T12:17:50.025Z,1016.48
2019-04-21T12:18:49.219Z,1016.52
2019-04-21T12:19:48.597Z,1016.45
2019-04-21T12:20:49.285Z,1016.44
2019-04-21T12:21:58.777Z,1016.44
2019-04-21T12:22:49.431Z,1016.43
2019-04-21T12:23:48.394Z,1016.34
2019-04-21T12:24:49.071Z,1016.33
2019-04-21T12:25:49.447Z,1016.35
2019-04-21T12:26:49.657Z,1016.31
2019-04-21T12:27:48.200Z,1016.29
2019-04-21T12:28:48.162Z,1016.28
2019-04-21T12:29:49.350Z,1016.25
2019-04-21T12:30:49.283Z,1016.23
2019-04-21T12:31:48.079Z,1016.19
2019-04-21T12:32:48.565Z,1016.20
2019-04-21T12:33:48.069Z,1016.21
2019-04-21T12:34:50.499Z,1016.18
2019-04-21T12:35:48.203Z,1016.22
2019-04-21T12:36:48.717Z,1016.26
2019-04-21T12:37:49.005Z,1016.26
2019-04-21T12:38:53.931Z,1016.21
2019-04-21T12:39:48.589Z,1016.14
2019-04-21T12:40:48.549Z,1016.16
2019-04-21T12:41:48.861Z,1016.13
2019-04-21T12:42:48.385Z,1016.07
2019-04-21T12:43:48.658Z,1016.10
2019-04-21T12:44:47.661Z,1016.08
2019-04-21T12:45:47.614Z,1016.11
2019-04-21T12:46:47.764Z,1016.07
2019-04-21T12:47:50.251Z,1016.07
2019-04-21T12:48:47.793Z,1016.05
2019-04-21T12:49:47.801Z,1016.03
2019-04-21T12:50:47.938Z,1016.03
2019-04-21T12:51:48.029Z,1015.98
2019-04-21T12:52:47.516Z,1015.96
2019-04-21T12:53:47.780Z,1015.96
2019-04-21T12:55:48.067Z,1015.97
2019-04-21T12:56:47.664Z,1015.95
2019-04-21T12:57:47.670Z,1015.92
2019-04-21T12:58:47.274Z,1015.91